Terminal Aerodrome Forecast
Issued by NWS

Home | Current Version | Previous Version | Text Only | Print | Product List | Glossary On
Versions: 1 2 3 4 5 6 7 8 9 10 11 12 13 14 15 16 17 18 19 20 21 22 23 24
000
FTUS44 KSJT 262300
TAFJCT
TAF
KJCT 262329Z 2700/2724 04012G18KT P6SM OVC024
     FM270500 06011KT P6SM OVC035
     FM271700 05009KT 6SM -DZ OVC018=

USA.gov is the U.S. government's official web portal to all federal, state and local government web resources and services.